createdAt,value
2018-08-28T00:00:47.253Z,16.00
2018-08-28T00:03:39.351Z,16.00
2018-08-28T00:06:09.725Z,16.00
2018-08-28T00:08:40.796Z,16.00
2018-08-28T00:11:11.984Z,15.80
2018-08-28T00:13:43.391Z,15.70
2018-08-28T00:16:13.778Z,15.70
2018-08-28T00:19:05.604Z,15.80
2018-08-28T00:21:35.998Z,15.90
2018-08-28T00:24:07.162Z,15.80
2018-08-28T00:26:37.586Z,15.80
2018-08-28T00:29:07.981Z,15.80
2018-08-28T00:31:40.085Z,15.70
2018-08-28T00:34:10.556Z,15.70
2018-08-28T00:36:40.933Z,15.60
2018-08-28T00:39:11.308Z,15.60
2018-08-28T00:41:41.723Z,15.60
2018-08-28T00:44:12.116Z,15.50
2018-08-28T00:46:42.503Z,15.40
2018-08-28T00:52:02.909Z,15.50
2018-08-28T00:54:33.309Z,15.50
2018-08-28T00:57:03.690Z,15.50
2018-08-28T00:59:34.085Z,15.40
2018-08-28T01:02:04.490Z,15.30
2018-08-28T01:04:35.907Z,15.40
2018-08-28T01:07:06.291Z,15.30
2018-08-28T01:09:36.715Z,15.20
2018-08-28T01:12:07.174Z,15.30
2018-08-28T01:14:37.512Z,15.40
2018-08-28T01:17:08.665Z,15.10
2018-08-28T01:19:39.048Z,15.10
2018-08-28T01:22:09.445Z,15.10
2018-08-28T01:25:01.214Z,15.00
2018-08-28T01:27:32.366Z,14.90
2018-08-28T01:30:03.757Z,15.00
2018-08-28T01:32:55.606Z,15.00
2018-08-28T01:35:25.984Z,15.00
2018-08-28T01:37:56.295Z,14.90
2018-08-28T01:40:27.481Z,14.90
2018-08-28T01:43:19.290Z,14.90
2018-08-28T01:45:49.711Z,14.90
2018-08-28T01:48:20.100Z,14.90
2018-08-28T01:50:50.489Z,14.90
2018-08-28T01:53:40.972Z,14.80
2018-08-28T01:56:11.349Z,14.80
2018-08-28T01:58:41.728Z,14.80
2018-08-28T02:01:12.817Z,14.90
2018-08-28T02:03:43.125Z,14.90
2018-08-28T02:06:13.520Z,14.80
2018-08-28T02:08:43.951Z,14.90
2018-08-28T02:11:16.397Z,14.90
2018-08-28T02:13:47.557Z,14.70
2018-08-28T02:16:17.974Z,14.60
2018-08-28T02:18:48.372Z,14.80
2018-08-28T02:21:18.760Z,14.80
2018-08-28T02:23:55.309Z,14.80
2018-08-28T02:26:25.703Z,14.30
2018-08-28T02:28:56.856Z,14.70
2018-08-28T02:31:28.039Z,14.60
2018-08-28T02:33:58.418Z,14.60
2018-08-28T02:36:29.561Z,14.60
2018-08-28T02:38:59.974Z,14.60
2018-08-28T02:41:30.547Z,14.60
2018-08-28T02:44:00.875Z,14.50
2018-08-28T02:46:32.043Z,14.60
2018-08-28T02:49:21.529Z,14.60
2018-08-28T02:51:55.014Z,14.60
2018-08-28T02:54:26.420Z,14.60
2018-08-28T02:56:57.580Z,14.20
2018-08-28T02:59:27.992Z,14.20
2018-08-28T03:01:58.381Z,14.30
2018-08-28T03:04:28.772Z,14.30
2018-08-28T03:06:59.171Z,14.20
2018-08-28T03:09:30.257Z,13.90
2018-08-28T03:12:04.759Z,13.80
2018-08-28T03:14:35.082Z,14.20
2018-08-28T03:17:05.460Z,14.20
2018-08-28T03:19:35.866Z,14.10
2018-08-28T03:22:27.595Z,14.00
2018-08-28T03:25:19.407Z,14.10
2018-08-28T03:27:50.016Z,14.00
2018-08-28T03:30:20.331Z,14.10
2018-08-28T03:32:50.731Z,14.00
2018-08-28T03:35:23.097Z,14.00
2018-08-28T03:37:53.466Z,14.20
2018-08-28T03:40:23.875Z,13.80
2018-08-28T03:42:55.034Z,13.80
2018-08-28T03:45:25.414Z,13.80
2018-08-28T03:47:55.841Z,13.90
2018-08-28T03:50:26.238Z,13.80
2018-08-28T03:52:56.547Z,13.90
2018-08-28T03:55:27.014Z,14.10
2018-08-28T03:57:58.125Z,13.50
2018-08-28T04:00:28.696Z,13.40
2018-08-28T04:03:03.214Z,13.30
2018-08-28T04:05:33.601Z,13.70
2018-08-28T04:08:03.984Z,13.60
2018-08-28T04:10:35.555Z,13.50
2018-08-28T04:13:06.698Z,13.70
2018-08-28T04:15:37.084Z,13.70
2018-08-28T04:18:26.863Z,13.70
2018-08-28T04:21:04.569Z,13.70
2018-08-28T04:23:54.367Z,13.60
2018-08-28T04:26:24.756Z,13.70
2018-08-28T04:28:55.152Z,13.80
2018-08-28T04:31:25.570Z,13.70
2018-08-28T04:33:55.972Z,13.80
2018-08-28T04:36:26.345Z,13.70
2018-08-28T04:38:56.759Z,13.70
2018-08-28T04:41:27.898Z,13.60
2018-08-28T04:44:00.090Z,13.60
2018-08-28T04:46:30.431Z,13.60
2018-08-28T04:49:00.840Z,13.40
2018-08-28T04:51:31.155Z,13.60
2018-08-28T04:54:01.595Z,13.60
2018-08-28T04:56:31.933Z,13.60
2018-08-28T04:59:02.317Z,13.50
2018-08-28T05:01:33.435Z,13.60
2018-08-28T05:06:48.264Z,13.70
2018-08-28T05:09:19.341Z,13.60
2018-08-28T05:11:49.740Z,13.60
2018-08-28T05:14:20.914Z,13.50
2018-08-28T05:17:10.405Z,13.60
2018-08-28T05:19:44.913Z,13.60
2018-08-28T05:22:37.670Z,13.60
2018-08-28T05:25:29.456Z,13.60
2018-08-28T05:28:00.575Z,13.50
2018-08-28T05:30:31.040Z,13.70
2018-08-28T05:33:21.518Z,13.60
2018-08-28T05:35:52.665Z,13.60
2018-08-28T05:38:24.009Z,13.70
2018-08-28T05:40:55.179Z,13.70
2018-08-28T05:43:25.571Z,13.70
2018-08-28T05:45:56.718Z,13.60
2018-08-28T05:48:27.914Z,13.60
2018-08-28T05:51:19.710Z,13.60
2018-08-28T05:53:50.110Z,13.90
2018-08-28T05:56:20.585Z,13.90
2018-08-28T05:58:50.914Z,13.90
2018-08-28T06:01:21.333Z,13.80
2018-08-28T06:03:51.733Z,14.00
2018-08-28T06:06:22.888Z,14.00
2018-08-28T06:08:53.470Z,14.00
2018-08-28T06:11:24.456Z,14.10
2018-08-28T06:13:54.847Z,14.10
2018-08-28T06:16:25.271Z,13.80
2018-08-28T06:18:55.652Z,14.10
2018-08-28T06:21:26.050Z,14.30
2018-08-28T06:23:56.399Z,14.40
2018-08-28T06:26:26.863Z,14.10
2018-08-28T06:28:57.934Z,14.20
2018-08-28T06:31:28.364Z,14.50
2018-08-28T06:33:58.827Z,14.30
2018-08-28T06:36:29.152Z,14.50
2018-08-28T06:38:59.582Z,14.40
2018-08-28T06:41:29.971Z,14.50
2018-08-28T06:44:00.463Z,14.60
2018-08-28T06:46:36.905Z,14.90
2018-08-28T06:49:07.295Z,14.70
2018-08-28T06:51:37.617Z,14.80
2018-08-28T06:54:08.274Z,14.80
2018-08-28T06:56:39.475Z,14.80
2018-08-28T06:59:09.822Z,14.80
2018-08-28T07:01:40.238Z,15.00
2018-08-28T07:04:10.620Z,15.10
2018-08-28T07:06:40.945Z,15.30
2018-08-28T07:09:11.358Z,15.20
2018-08-28T07:11:41.758Z,15.40
2018-08-28T07:14:12.128Z,15.50
2018-08-28T07:16:42.556Z,15.70
2018-08-28T07:19:12.949Z,15.70
2018-08-28T07:21:44.092Z,15.70
2018-08-28T07:24:15.259Z,15.80
2018-08-28T07:26:45.639Z,15.80
2018-08-28T07:29:16.049Z,15.90
2018-08-28T07:32:07.882Z,16.00
2018-08-28T07:34:38.274Z,16.10
2018-08-28T07:37:08.664Z,16.20
2018-08-28T07:39:39.084Z,16.10
2018-08-28T07:42:09.480Z,16.20
2018-08-28T07:44:46.026Z,16.30
2018-08-28T07:47:16.408Z,16.30
2018-08-28T07:49:46.787Z,16.20
2018-08-28T07:52:17.197Z,17.00
2018-08-28T07:54:47.576Z,17.10
2018-08-28T07:57:17.969Z,17.50
2018-08-28T07:59:53.508Z,17.70
2018-08-28T08:02:23.904Z,17.40
2018-08-28T08:04:55.078Z,17.30
2018-08-28T08:07:25.498Z,17.30
2018-08-28T08:09:55.890Z,17.40
2018-08-28T08:12:26.291Z,17.50
2018-08-28T08:14:56.718Z,17.50
2018-08-28T08:17:27.113Z,17.70
2018-08-28T08:19:57.512Z,17.50
2018-08-28T08:22:27.924Z,17.80
2018-08-28T08:24:58.312Z,17.80
2018-08-28T08:27:28.695Z,18.00
2018-08-28T08:29:59.115Z,18.00
2018-08-28T08:32:30.257Z,18.00
2018-08-28T08:35:01.424Z,18.10
2018-08-28T08:37:31.839Z,18.00
2018-08-28T08:40:02.992Z,18.40
2018-08-28T08:42:33.388Z,18.40
2018-08-28T08:45:03.829Z,18.40
2018-08-28T08:47:34.201Z,18.40
2018-08-28T08:50:04.581Z,18.40
2018-08-28T08:52:34.993Z,18.30
2018-08-28T08:55:05.373Z,18.30
2018-08-28T08:57:35.770Z,18.40
2018-08-28T09:00:06.196Z,18.60
2018-08-28T09:02:36.603Z,18.70
2018-08-28T09:05:06.991Z,18.80
2018-08-28T09:07:39.428Z,18.90
2018-08-28T09:13:03.973Z,19.10
2018-08-28T09:15:53.474Z,19.10
2018-08-28T09:18:23.886Z,19.10
2018-08-28T09:21:15.695Z,19.10
2018-08-28T09:23:46.114Z,19.10
2018-08-28T09:26:16.502Z,19.30
2018-08-28T09:28:46.905Z,19.50
2018-08-28T09:31:17.415Z,19.50
2018-08-28T09:33:47.798Z,19.50
2018-08-28T09:36:18.191Z,19.60
2018-08-28T09:38:48.646Z,19.60
2018-08-28T09:41:18.995Z,19.60
2018-08-28T09:43:49.394Z,19.50
2018-08-28T09:46:19.791Z,19.50
2018-08-28T09:48:50.187Z,19.70
2018-08-28T09:51:20.567Z,19.70
2018-08-28T09:53:50.981Z,19.90
2018-08-28T09:56:21.367Z,19.80
2018-08-28T09:58:51.743Z,19.80
2018-08-28T10:01:22.174Z,19.80
2018-08-28T10:03:54.616Z,20.00
2018-08-28T10:06:45.164Z,20.00
2018-08-28T10:09:15.562Z,20.00
2018-08-28T10:11:45.961Z,20.20
2018-08-28T10:14:16.390Z,20.20
2018-08-28T10:16:46.797Z,20.30
2018-08-28T10:19:17.171Z,20.20
2018-08-28T10:21:47.571Z,20.40
2018-08-28T10:24:17.960Z,20.60
2018-08-28T10:26:49.121Z,20.70
2018-08-28T10:29:19.539Z,20.70
2018-08-28T10:31:49.924Z,20.60
2018-08-28T10:34:20.321Z,20.60
2018-08-28T10:36:58.239Z,20.60
2018-08-28T10:39:28.563Z,20.90
2018-08-28T10:42:18.352Z,21.00
2018-08-28T10:44:48.758Z,20.90
2018-08-28T10:47:19.359Z,21.00
2018-08-28T10:49:49.769Z,21.20
2018-08-28T10:52:20.912Z,21.30
2018-08-28T10:54:51.989Z,21.20
2018-08-28T10:57:22.412Z,21.20
2018-08-28T10:59:52.796Z,21.20
2018-08-28T11:02:23.172Z,21.20
2018-08-28T11:04:54.567Z,21.30
2018-08-28T11:07:25.143Z,21.30
2018-08-28T11:09:55.524Z,21.30
2018-08-28T11:12:26.974Z,21.40
2018-08-28T11:14:57.354Z,21.30
2018-08-28T11:17:28.768Z,21.40
2018-08-28T11:19:59.112Z,21.80
2018-08-28T11:22:29.513Z,21.70
2018-08-28T11:24:59.905Z,21.70
2018-08-28T11:27:50.695Z,21.90
2018-08-28T11:30:22.098Z,21.90
2018-08-28T11:32:53.245Z,22.00
2018-08-28T11:35:24.440Z,21.90
2018-08-28T11:38:02.085Z,21.80
2018-08-28T11:40:32.497Z,21.80
2018-08-28T11:43:04.938Z,21.70
2018-08-28T11:45:36.268Z,22.10
2018-08-28T11:48:06.711Z,22.10
2018-08-28T11:50:38.122Z,22.30
2018-08-28T11:53:08.518Z,22.40
2018-08-28T11:55:38.931Z,22.40
2018-08-28T11:58:09.317Z,22.50
2018-08-28T12:00:39.689Z,22.40
2018-08-28T12:03:10.111Z,22.40
2018-08-28T12:05:42.546Z,22.40
2018-08-28T12:08:12.939Z,22.50
2018-08-28T12:10:43.365Z,22.60
2018-08-28T12:13:14.132Z,22.50
2018-08-28T12:15:44.422Z,22.40
2018-08-28T12:18:14.854Z,22.30
2018-08-28T12:20:45.279Z,22.40
2018-08-28T12:23:18.726Z,22.30
2018-08-28T12:25:50.087Z,22.50
2018-08-28T12:28:23.546Z,22.70
2018-08-28T12:30:54.713Z,22.60
2018-08-28T12:33:25.119Z,22.60
2018-08-28T12:35:56.283Z,22.60
2018-08-28T12:38:26.665Z,22.60
2018-08-28T12:40:57.083Z,22.70
2018-08-28T12:43:27.464Z,22.70
2018-08-28T12:45:57.864Z,22.90
2018-08-28T12:48:29.054Z,22.90
2018-08-28T12:50:59.445Z,22.90
2018-08-28T12:53:30.597Z,23.00
2018-08-28T12:56:00.944Z,23.00
2018-08-28T12:58:31.335Z,22.70
2018-08-28T13:01:01.711Z,22.90
2018-08-28T13:03:32.076Z,22.80
2018-08-28T13:06:02.407Z,22.90
2018-08-28T13:08:33.502Z,22.90
2018-08-28T13:11:11.240Z,22.90
2018-08-28T13:13:41.616Z,23.30
2018-08-28T13:16:12.011Z,23.40
2018-08-28T13:18:42.422Z,23.40
2018-08-28T13:21:12.814Z,23.40
2018-08-28T13:24:04.643Z,23.50
2018-08-28T13:26:41.099Z,23.50
2018-08-28T13:32:00.127Z,23.50
2018-08-28T13:34:31.562Z,23.50
2018-08-28T13:37:01.945Z,23.40
2018-08-28T13:39:32.414Z,23.60
2018-08-28T13:42:03.516Z,23.40
2018-08-28T13:44:33.964Z,23.40
2018-08-28T13:47:05.223Z,23.30
2018-08-28T13:49:35.504Z,23.30
2018-08-28T13:52:05.901Z,23.20
2018-08-28T13:54:36.235Z,23.30
2018-08-28T13:57:07.436Z,23.20
2018-08-28T13:59:44.996Z,23.20
2018-08-28T14:02:15.402Z,23.30
2018-08-28T14:04:46.549Z,23.40
2018-08-28T14:07:17.642Z,23.40
2018-08-28T14:10:10.420Z,23.50
2018-08-28T14:12:40.808Z,23.60
2018-08-28T14:15:12.148Z,23.40
2018-08-28T14:17:42.559Z,23.40
2018-08-28T14:20:12.955Z,23.60
2018-08-28T14:22:43.344Z,23.40
2018-08-28T14:25:13.686Z,23.40
2018-08-28T14:27:44.082Z,23.40
2018-08-28T14:30:14.490Z,23.40
2018-08-28T14:32:44.914Z,23.20
2018-08-28T14:35:16.062Z,23.20
2018-08-28T14:37:46.448Z,23.20
2018-08-28T14:40:16.847Z,23.20
2018-08-28T14:43:05.568Z,23.20
2018-08-28T14:45:36.777Z,23.40
2018-08-28T14:48:07.174Z,23.40
2018-08-28T14:50:41.679Z,23.40
2018-08-28T14:53:12.002Z,23.60
2018-08-28T14:55:42.394Z,23.50
2018-08-28T14:58:12.820Z,23.50
2018-08-28T15:00:43.203Z,23.40
2018-08-28T15:03:15.642Z,23.40
2018-08-28T15:05:46.078Z,23.40
2018-08-28T15:08:17.217Z,23.20
2018-08-28T15:10:47.615Z,23.20
2018-08-28T15:13:18.027Z,23.30
2018-08-28T15:15:48.414Z,23.30
2018-08-28T15:18:18.794Z,23.30
2018-08-28T15:20:49.228Z,23.30
2018-08-28T15:23:19.592Z,23.70
2018-08-28T15:25:49.985Z,23.40
2018-08-28T15:28:21.101Z,23.60
2018-08-28T15:30:51.500Z,23.60
2018-08-28T15:33:22.926Z,23.70
2018-08-28T15:35:53.355Z,23.80
2018-08-28T15:38:23.717Z,23.90
2018-08-28T15:40:54.845Z,23.70
2018-08-28T15:43:25.275Z,23.70
2018-08-28T15:45:55.839Z,23.60
2018-08-28T15:48:26.211Z,23.50
2018-08-28T15:50:56.623Z,23.50
2018-08-28T15:53:27.010Z,23.30
2018-08-28T15:56:21.904Z,23.30
2018-08-28T15:59:14.322Z,23.60
2018-08-28T16:01:44.727Z,23.60
2018-08-28T16:04:15.111Z,23.70
2018-08-28T16:06:45.500Z,23.60
2018-08-28T16:09:15.908Z,23.50
2018-08-28T16:11:46.998Z,23.50
2018-08-28T16:14:37.783Z,23.50
2018-08-28T16:17:08.139Z,23.70
2018-08-28T16:19:38.523Z,23.70
2018-08-28T16:22:08.943Z,23.70
2018-08-28T16:24:39.333Z,23.60
2018-08-28T16:27:09.720Z,23.50
2018-08-28T16:29:40.951Z,23.50
2018-08-28T16:32:11.286Z,23.40
2018-08-28T16:34:45.652Z,23.60
2018-08-28T16:37:18.733Z,23.50
2018-08-28T16:39:49.125Z,23.50
2018-08-28T16:42:19.441Z,23.30
2018-08-28T16:44:49.785Z,23.50
2018-08-28T16:47:20.106Z,23.40
2018-08-28T16:49:55.576Z,23.60
2018-08-28T16:52:25.951Z,23.60
2018-08-28T16:54:56.325Z,23.50
2018-08-28T16:57:26.754Z,23.40
2018-08-28T16:59:57.156Z,23.20
2018-08-28T17:02:27.532Z,23.10
2018-08-28T17:04:57.878Z,23.30
2018-08-28T17:07:30.817Z,23.40
2018-08-28T17:10:01.194Z,23.40
2018-08-28T17:15:17.721Z,23.20
2018-08-28T17:17:48.117Z,23.20
2018-08-28T17:20:21.121Z,23.10
2018-08-28T17:22:54.999Z,23.20
2018-08-28T17:25:25.381Z,23.20
2018-08-28T17:27:55.994Z,23.20
2018-08-28T17:30:26.403Z,23.20
2018-08-28T17:32:56.726Z,23.10
2018-08-28T17:35:27.886Z,23.10
2018-08-28T17:37:59.004Z,23.10
2018-08-28T17:40:32.151Z,23.10
2018-08-28T17:43:05.630Z,23.10
2018-08-28T17:45:36.019Z,23.10
2018-08-28T17:48:06.399Z,23.10
2018-08-28T17:50:36.825Z,23.10
2018-08-28T17:53:07.190Z,23.10
2018-08-28T17:55:37.594Z,23.10
2018-08-28T17:58:08.007Z,23.10
2018-08-28T18:00:38.398Z,23.10
2018-08-28T18:03:09.549Z,22.90
2018-08-28T18:05:43.388Z,22.90
2018-08-28T18:08:13.778Z,22.90
2018-08-28T18:10:46.824Z,22.80
2018-08-28T18:13:17.939Z,22.70
2018-08-28T18:15:48.269Z,22.70
2018-08-28T18:18:18.657Z,22.70
2018-08-28T18:20:51.959Z,22.60
2018-08-28T18:23:23.111Z,22.50
2018-08-28T18:25:53.487Z,22.40
2018-08-28T18:28:23.919Z,22.40
2018-08-28T18:30:54.313Z,22.30
2018-08-28T18:33:24.722Z,22.30
2018-08-28T18:35:55.193Z,22.30
2018-08-28T18:38:28.024Z,22.20
2018-08-28T18:40:59.930Z,22.20
2018-08-28T18:43:30.326Z,22.20
2018-08-28T18:46:00.691Z,22.10
2018-08-28T18:48:32.110Z,22.20
2018-08-28T18:51:02.468Z,22.30
2018-08-28T18:53:38.939Z,22.30
2018-08-28T18:56:14.080Z,22.20
2018-08-28T18:58:44.371Z,22.20
2018-08-28T19:01:14.750Z,22.10
2018-08-28T19:03:50.215Z,22.10
2018-08-28T19:06:21.516Z,22.10
2018-08-28T19:09:11.335Z,21.90
2018-08-28T19:11:41.635Z,22.10
2018-08-28T19:14:14.834Z,22.10
2018-08-28T19:16:48.154Z,22.10
2018-08-28T19:19:19.317Z,21.80
2018-08-28T19:21:49.694Z,21.80
2018-08-28T19:24:20.133Z,21.90
2018-08-28T19:26:50.525Z,21.90
2018-08-28T19:29:20.914Z,21.80
2018-08-28T19:31:52.217Z,21.70
2018-08-28T19:34:32.599Z,21.70
2018-08-28T19:37:04.045Z,21.70
2018-08-28T19:39:34.447Z,21.80
2018-08-28T19:42:26.922Z,21.80
2018-08-28T19:44:57.303Z,21.70
2018-08-28T19:47:32.478Z,21.70
2018-08-28T19:50:02.887Z,21.70
2018-08-28T19:52:33.271Z,21.60
2018-08-28T19:55:03.738Z,21.50
2018-08-28T19:57:33.993Z,21.40
2018-08-28T20:00:07.067Z,21.50
2018-08-28T20:02:37.476Z,21.60
2018-08-28T20:05:30.054Z,21.30
2018-08-28T20:08:00.492Z,21.30
2018-08-28T20:10:30.883Z,21.10
2018-08-28T20:13:02.242Z,21.00
2018-08-28T20:15:32.665Z,21.00
2018-08-28T20:18:05.998Z,20.90
2018-08-28T20:20:37.144Z,20.90
2018-08-28T20:23:28.862Z,20.80
2018-08-28T20:26:02.676Z,20.90
2018-08-28T20:28:33.870Z,20.90
2018-08-28T20:31:12.115Z,20.90
2018-08-28T20:33:42.533Z,21.00
2018-08-28T20:36:12.974Z,21.00
2018-08-28T20:38:43.380Z,20.90
2018-08-28T20:41:13.789Z,20.70
2018-08-28T20:43:44.240Z,20.80
2018-08-28T20:46:14.585Z,21.00
2018-08-28T20:48:48.232Z,20.90
2018-08-28T20:51:18.637Z,20.80
2018-08-28T20:53:51.543Z,20.80
2018-08-28T20:59:06.926Z,21.00
2018-08-28T21:01:37.547Z,21.00
2018-08-28T21:04:08.683Z,21.00
2018-08-28T21:06:39.869Z,21.00
2018-08-28T21:09:10.242Z,21.00
2018-08-28T21:11:40.640Z,21.00
2018-08-28T21:14:11.043Z,20.90
2018-08-28T21:16:44.527Z,21.00
2018-08-28T21:19:14.921Z,21.10
2018-08-28T21:21:46.339Z,21.20
2018-08-28T21:24:17.035Z,21.20
2018-08-28T21:26:47.412Z,21.20
2018-08-28T21:29:17.836Z,21.10
2018-08-28T21:32:07.332Z,21.10
2018-08-28T21:34:37.728Z,21.10
2018-08-28T21:37:08.051Z,21.10
2018-08-28T21:39:38.472Z,21.10
2018-08-28T21:42:10.945Z,21.10
2018-08-28T21:44:42.037Z,21.00
2018-08-28T21:47:13.251Z,21.10
2018-08-28T21:49:43.649Z,21.10
2018-08-28T21:52:16.085Z,21.10
2018-08-28T21:54:46.502Z,21.10
2018-08-28T21:57:16.901Z,21.10
2018-08-28T21:59:50.362Z,21.10
2018-08-28T22:02:20.767Z,20.90
2018-08-28T22:04:51.913Z,20.80
2018-08-28T22:07:23.053Z,20.90
2018-08-28T22:09:54.215Z,20.90
2018-08-28T22:12:25.388Z,20.90
2018-08-28T22:15:14.908Z,20.80
2018-08-28T22:17:45.308Z,20.80
2018-08-28T22:20:15.709Z,20.70
2018-08-28T22:22:46.131Z,20.60
2018-08-28T22:25:16.517Z,20.70
2018-08-28T22:27:46.898Z,20.70
2018-08-28T22:30:36.351Z,20.90
2018-08-28T22:33:06.740Z,20.90
2018-08-28T22:35:37.122Z,20.90
2018-08-28T22:38:09.602Z,20.90
2018-08-28T22:40:42.022Z,20.90
2018-08-28T22:43:13.171Z,20.80
2018-08-28T22:45:44.360Z,20.80
2018-08-28T22:48:18.825Z,20.70
2018-08-28T22:50:49.222Z,20.70
2018-08-28T22:53:19.639Z,20.70
2018-08-28T22:55:54.102Z,20.80
2018-08-28T22:58:24.504Z,20.80
2018-08-28T23:01:02.251Z,20.90
2018-08-28T23:03:33.401Z,20.90
2018-08-28T23:06:03.780Z,20.90
2018-08-28T23:08:34.200Z,20.90
2018-08-28T23:11:04.594Z,20.90
2018-08-28T23:13:34.976Z,20.50
2018-08-28T23:16:05.383Z,20.40
2018-08-28T23:18:35.746Z,20.40
2018-08-28T23:21:06.128Z,20.50
2018-08-28T23:23:40.638Z,20.60
2018-08-28T23:26:16.137Z,20.70
2018-08-28T23:28:47.310Z,20.50
2018-08-28T23:31:17.716Z,20.50
2018-08-28T23:33:48.080Z,20.50
2018-08-28T23:36:18.480Z,20.40
2018-08-28T23:38:48.851Z,20.30
2018-08-28T23:41:38.625Z,20.30
2018-08-28T23:44:31.439Z,20.30
2018-08-28T23:47:01.778Z,20.30
2018-08-28T23:49:32.175Z,20.30
2018-08-28T23:52:02.500Z,20.30
2018-08-28T23:54:32.929Z,20.20
2018-08-28T23:57:04.090Z,20.20
2018-08-28T23:59:34.466Z,20.20
